Time;durP1;ratioP1;P1;durP2;ratioP2;P2;SDS_P1;SDS_P2;PMS_P1;PMS_P2;Temp;Humidity;BMP_temperature;BMP_pressure;BME280_temperature;BME280_humidity;BME280_pressure;Samples;Min_cycle;Max_cycle;Signal;HPM_P1;HPM_P2
2022/12/12 00:00:26;;;;;;;0.40;0.40;;;13.00;71.10;;;;;;5075883;28;20210;-63
2022/12/12 00:03:14;;;;;;;0.40;0.40;;;13.20;71.20;;;;;;5075395;28;20590;-63
2022/12/12 00:06:03;;;;;;;0.40;0.40;;;13.00;71.20;;;;;;5076122;28;20608;-63
2022/12/12 00:08:52;;;;;;;0.40;0.40;;;13.00;71.10;;;;;;5075400;28;20455;-62
2022/12/12 00:11:40;;;;;;;0.40;0.40;;;12.90;71.40;;;;;;5075903;28;20219;-64
2022/12/12 00:14:28;;;;;;;0.40;0.40;;;12.90;71.10;;;;;;5074969;28;20193;-63
2022/12/12 00:17:18;;;;;;;0.40;0.40;;;12.90;71.40;;;;;;5075121;28;20685;-62
2022/12/12 00:20:07;;;;;;;0.50;0.50;;;12.90;71.50;;;;;;5074984;28;20701;-62
2022/12/12 00:22:55;;;;;;;0.40;0.40;;;12.90;71.60;;;;;;5075245;28;20257;-63
2022/12/12 00:25:43;;;;;;;0.40;0.40;;;13.00;71.60;;;;;;5074647;28;20583;-64
2022/12/12 00:28:31;;;;;;;0.40;0.40;;;12.90;71.30;;;;;;5074969;28;20590;-64
2022/12/12 00:31:19;;;;;;;0.40;0.40;;;12.90;71.30;;;;;;5074721;28;20197;-63
2022/12/12 00:34:08;;;;;;;0.40;0.40;;;12.90;71.40;;;;;;5075366;28;20201;-63
2022/12/12 00:36:56;;;;;;;0.40;0.40;;;12.90;71.50;;;;;;5074801;28;20450;-63
2022/12/12 00:39:45;;;;;;;0.40;0.40;;;12.90;71.50;;;;;;5074395;28;20201;-62
2022/12/12 00:42:33;;;;;;;0.40;0.40;;;12.90;71.50;;;;;;5074499;28;20953;-63
2022/12/12 00:45:21;;;;;;;0.40;0.40;;;12.90;73.60;;;;;;5074361;28;20415;-66
2022/12/12 00:48:09;;;;;;;0.40;0.40;;;12.90;71.30;;;;;;5075080;28;20469;-65
2022/12/12 00:51:05;;;;;;;0.40;0.40;;;12.90;71.30;;;;;;5074064;28;20680;-62
2022/12/12 00:53:54;;;;;;;0.40;0.40;;;12.90;71.30;;;;;;5074980;28;20199;-63
2022/12/12 00:56:41;;;;;;;0.40;0.40;;;12.90;71.30;;;;;;5073920;28;20224;-64
2022/12/12 00:59:30;;;;;;;0.40;0.40;;;12.90;71.40;;;;;;5074621;28;20192;-64
2022/12/12 01:02:19;;;;;;;0.40;0.40;;;12.90;71.50;;;;;;5074427;28;20201;-63
2022/12/12 01:05:15;;;;;;;0.40;0.40;;;12.90;71.20;;;;;;5074640;28;20419;-63
2022/12/12 01:08:04;;;;;;;0.40;0.40;;;12.90;71.50;;;;;;5074679;28;20589;-62
2022/12/12 01:10:52;;;;;;;0.40;0.40;;;12.80;71.20;;;;;;5074219;28;20204;-63
2022/12/12 01:13:42;;;;;;;0.40;0.40;;;12.80;71.60;;;;;;5073903;28;20744;-62
2022/12/12 01:16:30;;;;;;;0.40;0.40;;;12.80;71.40;;;;;;5073895;28;20795;-66
2022/12/12 01:19:18;;;;;;;0.40;0.40;;;12.80;71.50;;;;;;5074116;28;20196;-64
2022/12/12 01:22:06;;;;;;;0.40;0.40;;;12.80;71.60;;;;;;5074043;28;20201;-65
2022/12/12 01:24:55;;;;;;;0.67;0.67;;;12.80;71.70;;;;;;5074027;28;20423;-65
2022/12/12 01:27:44;;;;;;;0.50;0.50;;;12.70;71.70;;;;;;5073703;28;20350;-62
2022/12/12 01:30:33;;;;;;;0.40;0.40;;;12.70;72.00;;;;;;5073213;28;20416;-65
2022/12/12 01:33:21;;;;;;;0.40;0.40;;;12.80;72.00;;;;;;5072836;28;20506;-64
2022/12/12 01:36:09;;;;;;;0.40;0.40;;;12.80;71.70;;;;;;5073334;28;20446;-63
2022/12/12 01:38:58;;;;;;;0.40;0.40;;;12.70;71.70;;;;;;5073748;28;20282;-64
2022/12/12 01:41:47;;;;;;;0.40;0.40;;;12.80;72.00;;;;;;5073612;28;20935;-63
2022/12/12 01:44:42;;;;;;;0.40;0.40;;;12.70;71.60;;;;;;5073573;28;20485;-64
2022/12/12 01:47:30;;;;;;;2.60;2.40;;;12.70;72.10;;;;;;5073217;28;20381;-64
2022/12/12 01:50:18;;;;;;;0.40;0.40;;;12.70;71.70;;;;;;5072366;28;20852;-63
2022/12/12 01:53:06;;;;;;;0.40;0.40;;;12.70;71.70;;;;;;5073087;28;20211;-63
2022/12/12 01:55:56;;;;;;;0.40;0.40;;;12.70;71.70;;;;;;5072629;28;20540;-63
2022/12/12 01:58:47;;;;;;;0.40;0.40;;;12.70;71.60;;;;;;5033541;28;20405;-63
2022/12/12 02:01:36;;;;;;;0.87;0.87;;;12.60;71.70;;;;;;5033635;28;20425;-62
2022/12/12 02:04:27;;;;;;;0.50;0.50;;;12.60;71.90;;;;;;5033304;28;20430;-63
2022/12/12 02:07:16;;;;;;;0.40;0.40;;;12.60;71.80;;;;;;5037215;28;20796;-64
2022/12/12 02:10:05;;;;;;;0.40;0.40;;;12.60;71.90;;;;;;5052755;28;20463;-64
2022/12/12 02:12:59;;;;;;;0.40;0.40;;;12.70;72.10;;;;;;5053700;28;20481;-63
2022/12/12 02:15:57;;;;;;;0.40;0.40;;;12.70;71.90;;;;;;5050000;28;20870;-63
2022/12/12 02:18:55;;;;;;;0.40;0.40;;;12.70;72.70;;;;;;5033517;28;20209;-63
2022/12/12 02:21:50;;;;;;;0.70;0.70;;;12.80;72.80;;;;;;5033050;28;20253;-63
2022/12/12 02:25:10;;;;;;;0.40;0.40;;;12.90;72.60;;;;;;5033363;28;20683;-64
2022/12/12 02:28:27;;;;;;;0.40;0.40;;;12.90;72.30;;;;;;5033205;28;20453;-63
2022/12/12 02:31:21;;;;;;;0.40;0.40;;;13.00;72.60;;;;;;5032894;28;20427;-63
2022/12/12 02:34:18;;;;;;;0.50;0.50;;;13.00;72.10;;;;;;5032728;28;20197;-64
2022/12/12 02:37:12;;;;;;;0.40;0.40;;;13.00;72.20;;;;;;5032754;28;20448;-66
2022/12/12 02:40:06;;;;;;;0.63;0.63;;;13.00;71.80;;;;;;5032685;28;20199;-66
2022/12/12 02:43:01;;;;;;;0.40;0.40;;;13.00;71.90;;;;;;5032330;28;20666;-63
2022/12/12 02:45:54;;;;;;;0.40;0.40;;;13.00;71.60;;;;;;5033163;28;20445;-62
2022/12/12 02:48:49;;;;;;;0.40;0.40;;;13.00;72.00;;;;;;5033034;28;20225;-66
2022/12/12 02:51:39;;;;;;;1.27;1.17;;;13.00;71.80;;;;;;5032756;28;20432;-64
2022/12/12 02:54:27;;;;;;;0.40;0.40;;;13.00;71.80;;;;;;5032855;28;20421;-66
2022/12/12 02:57:17;;;;;;;0.40;0.40;;;12.90;71.50;;;;;;5052944;28;20983;-65
2022/12/12 03:00:08;;;;;;;0.40;0.40;;;12.90;71.40;;;;;;5072409;28;20189;-65
2022/12/12 03:10:04;;;;;;;0.40;0.40;;;12.90;71.60;;;;;;5071801;28;20463;-63
2022/12/12 03:12:59;;;;;;;0.40;0.40;;;12.10;71.10;;;;;;5072466;28;20200;-63
2022/12/12 03:15:56;;;;;;;0.40;0.40;;;12.90;71.80;;;;;;5072681;28;20449;-63
2022/12/12 03:18:52;;;;;;;0.40;0.40;;;12.90;72.00;;;;;;5072511;28;20201;-64
2022/12/12 03:21:49;;;;;;;0.40;0.40;;;12.90;72.30;;;;;;5071812;28;20557;-62
2022/12/12 03:24:43;;;;;;;0.40;0.40;;;12.90;72.30;;;;;;5072477;28;20192;-63
2022/12/12 03:27:35;;;;;;;0.40;0.40;;;12.80;72.40;;;;;;5072172;28;20457;-63
2022/12/12 03:30:23;;;;;;;0.40;0.40;;;12.90;72.30;;;;;;5072222;28;20549;-63
2022/12/12 03:33:16;;;;;;;0.50;0.50;;;12.90;72.00;;;;;;5072180;28;20522;-63
2022/12/12 03:36:10;;;;;;;0.40;0.40;;;12.90;72.20;;;;;;5072793;28;20235;-66
2022/12/12 03:39:05;;;;;;;0.40;0.40;;;12.90;72.30;;;;;;5072642;28;20199;-64
2022/12/12 03:41:59;;;;;;;0.40;0.40;;;12.90;72.40;;;;;;5071999;28;20331;-64
2022/12/12 03:44:50;;;;;;;0.40;0.40;;;12.90;72.10;;;;;;5072033;28;20419;-63
2022/12/12 03:47:45;;;;;;;0.60;0.60;;;12.90;72.20;;;;;;5071642;28;20430;-64
2022/12/12 03:50:38;;;;;;;0.40;0.40;;;12.90;72.30;;;;;;5071453;28;20217;-63
2022/12/12 03:53:33;;;;;;;0.40;0.40;;;12.90;72.30;;;;;;5071991;28;20197;-64
2022/12/12 03:56:27;;;;;;;0.57;0.57;;;12.90;72.30;;;;;;5071766;28;20728;-63
2022/12/12 03:59:19;;;;;;;0.40;0.40;;;12.80;72.00;;;;;;5072118;28;20794;-64
2022/12/12 04:02:18;;;;;;;0.40;0.40;;;12.80;72.00;;;;;;5071752;28;20605;-63
2022/12/12 04:05:14;;;;;;;0.40;0.40;;;12.80;72.10;;;;;;5071534;28;20430;-66
2022/12/12 04:08:07;;;;;;;0.40;0.40;;;12.80;72.20;;;;;;5072526;28;20201;-63
2022/12/12 04:14:19;;;;;;;0.40;0.40;;;12.80;72.40;;;;;;5073853;28;20431;-63
2022/12/12 04:17:12;;;;;;;0.40;0.40;;;12.80;72.20;;;;;;5075581;28;20342;-65
2022/12/12 04:23:21;;;;;;;0.40;0.40;;;12.80;72.10;;;;;;5075192;28;20691;-63
2022/12/12 04:29:34;;;;;;;0.40;0.40;;;12.80;72.30;;;;;;5074102;28;20307;-63
2022/12/12 04:32:28;;;;;;;0.40;0.40;;;12.80;72.60;;;;;;5075608;28;20200;-63
2022/12/12 04:35:20;;;;;;;0.40;0.40;;;12.80;73.00;;;;;;5074763;28;20425;-63
2022/12/12 04:38:10;;;;;;;0.40;0.40;;;12.70;72.80;;;;;;5074806;28;20422;-66
2022/12/12 04:41:00;;;;;;;0.40;0.40;;;12.80;73.10;;;;;;5074807;28;20200;-63
2022/12/12 04:43:51;;;;;;;0.50;0.50;;;12.90;73.10;;;;;;5074612;28;20432;-66
2022/12/12 04:46:42;;;;;;;0.40;0.40;;;13.00;72.90;;;;;;5074944;28;20534;-62
2022/12/12 04:49:33;;;;;;;0.40;0.40;;;13.10;72.80;;;;;;5075545;28;20685;-65
2022/12/12 04:52:23;;;;;;;0.47;0.47;;;13.20;72.80;;;;;;5074625;28;20416;-63
2022/12/12 04:55:17;;;;;;;0.40;0.40;;;13.20;72.50;;;;;;5074805;28;20434;-63
2022/12/12 04:58:06;;;;;;;0.40;0.40;;;13.30;72.50;;;;;;5076532;28;20203;-64
2022/12/12 05:01:02;;;;;;;0.40;0.40;;;13.30;72.40;;;;;;5075296;28;20204;-65
2022/12/12 05:03:56;;;;;;;0.40;0.40;;;13.20;72.20;;;;;;5075613;28;20197;-64
2022/12/12 05:06:50;;;;;;;0.40;0.40;;;13.30;72.20;;;;;;5075643;28;20443;-65
2022/12/12 05:09:39;;;;;;;0.40;0.40;;;13.20;72.20;;;;;;5075712;28;20304;-64
2022/12/12 05:12:27;;;;;;;0.40;0.40;;;13.20;72.00;;;;;;5075842;28;20197;-63
2022/12/12 05:15:18;;;;;;;0.40;0.40;;;13.20;72.00;;;;;;5075448;28;20203;-64
2022/12/12 05:18:08;;;;;;;0.40;0.40;;;13.20;72.70;;;;;;5075654;28;20575;-65
2022/12/12 05:20:57;;;;;;;0.40;0.40;;;13.20;72.10;;;;;;5075007;28;20200;-64
2022/12/12 05:23:45;;;;;;;0.40;0.40;;;13.20;72.00;;;;;;5074298;28;20772;-64
2022/12/12 05:26:34;;;;;;;0.40;0.40;;;13.20;72.00;;;;;;5075398;28;20224;-64
2022/12/12 05:29:22;;;;;;;0.40;0.40;;;13.20;71.90;;;;;;5074964;28;20197;-65
2022/12/12 05:32:10;;;;;;;0.40;0.40;;;13.20;72.00;;;;;;5075406;28;20205;-65
2022/12/12 05:34:58;;;;;;;0.40;0.40;;;13.10;72.00;;;;;;5075285;28;20801;-64
2022/12/12 05:37:48;;;;;;;0.50;0.50;;;13.10;72.20;;;;;;5074809;28;20702;-66
2022/12/12 05:40:39;;;;;;;0.40;0.40;;;13.00;72.10;;;;;;5074852;28;20197;-64
2022/12/12 05:43:27;;;;;;;0.40;0.40;;;13.00;72.20;;;;;;5075156;28;20199;-65
2022/12/12 05:46:15;;;;;;;0.40;0.40;;;13.00;72.60;;;;;;5074748;28;20224;-65
2022/12/12 05:49:03;;;;;;;0.40;0.40;;;13.00;72.60;;;;;;5074377;28;20435;-65
2022/12/12 05:51:51;;;;;;;0.40;0.40;;;13.00;72.60;;;;;;5074376;28;20423;-65
2022/12/12 05:54:41;;;;;;;0.40;0.40;;;13.00;72.60;;;;;;5074804;28;20438;-66
2022/12/12 05:57:29;;;;;;;0.40;0.40;;;12.90;72.60;;;;;;5074061;28;20240;-66
2022/12/12 06:00:17;;;;;;;0.40;0.40;;;12.90;72.90;;;;;;5074064;28;20197;-64
2022/12/12 06:03:05;;;;;;;0.40;0.40;;;12.90;73.00;;;;;;5074229;28;20573;-67
2022/12/12 06:05:53;;;;;;;0.40;0.40;;;12.90;73.10;;;;;;5074447;28;20224;-65
2022/12/12 06:08:41;;;;;;;0.70;0.70;;;12.90;73.00;;;;;;5075032;28;20420;-64
2022/12/12 06:11:30;;;;;;;0.40;0.40;;;12.90;73.10;;;;;;5073643;28;20225;-65
2022/12/12 06:14:18;;;;;;;0.40;0.40;;;12.90;73.80;;;;;;5073819;28;20572;-63
2022/12/12 06:17:06;;;;;;;0.40;0.40;;;13.00;72.90;;;;;;5074421;28;20308;-64
2022/12/12 06:19:54;;;;;;;0.40;0.40;;;13.00;73.00;;;;;;5073931;28;20280;-63
2022/12/12 06:22:42;;;;;;;1.20;1.13;;;13.00;72.70;;;;;;5073820;28;20211;-65
2022/12/12 06:25:33;;;;;;;0.40;0.40;;;13.10;72.50;;;;;;5073514;28;20224;-65
2022/12/12 06:28:23;;;;;;;0.40;0.40;;;13.10;72.50;;;;;;5073554;28;20207;-65
2022/12/12 06:31:11;;;;;;;0.50;0.50;;;13.10;72.40;;;;;;5073773;28;20681;-65
2022/12/12 06:33:59;;;;;;;0.40;0.40;;;13.00;72.10;;;;;;5073417;28;20927;-64
2022/12/12 06:36:47;;;;;;;0.40;0.40;;;13.00;72.00;;;;;;5073336;28;20758;-64
2022/12/12 06:39:36;;;;;;;0.40;0.40;;;13.00;72.10;;;;;;5073354;28;20422;-65
2022/12/12 06:42:24;;;;;;;0.40;0.40;;;13.00;72.10;;;;;;5073484;28;20284;-65
2022/12/12 06:45:14;;;;;;;0.40;0.40;;;13.00;72.40;;;;;;5074043;28;20944;-65
2022/12/12 06:48:02;;;;;;;0.40;0.40;;;13.00;72.40;;;;;;5073780;28;20254;-66
2022/12/12 06:50:50;;;;;;;0.40;0.40;;;13.00;72.20;;;;;;5072963;28;20541;-66
2022/12/12 06:53:38;;;;;;;0.40;0.40;;;12.90;72.40;;;;;;5073702;28;20207;-65
2022/12/12 06:56:27;;;;;;;0.40;0.40;;;12.90;72.50;;;;;;5073302;28;20593;-64
2022/12/12 06:59:15;;;;;;;0.40;0.40;;;12.90;72.70;;;;;;5072847;28;20423;-64
2022/12/12 07:02:05;;;;;;;0.40;0.40;;;12.80;72.70;;;;;;5060903;28;20201;-65
2022/12/12 07:04:55;;;;;;;0.40;0.40;;;12.80;72.90;;;;;;5053164;28;20200;-65
2022/12/12 07:07:43;;;;;;;0.70;0.70;;;12.80;72.60;;;;;;5052906;28;20424;-65
2022/12/12 07:10:31;;;;;;;1.13;0.97;;;12.80;73.10;;;;;;5052459;28;20217;-64
2022/12/12 07:13:19;;;;;;;0.40;0.40;;;12.90;73.50;;;;;;5053018;28;20203;-63
2022/12/12 07:16:08;;;;;;;0.40;0.40;;;13.00;73.40;;;;;;5052690;28;20900;-64
2022/12/12 07:18:57;;;;;;;0.87;0.87;;;13.10;73.30;;;;;;5054335;28;20288;-66
2022/12/12 07:21:45;;;;;;;0.40;0.40;;;13.20;73.20;;;;;;5052081;28;20412;-63
2022/12/12 07:24:33;;;;;;;0.40;0.40;;;13.20;72.90;;;;;;5053046;28;20197;-63
2022/12/12 07:27:21;;;;;;;0.40;0.40;;;13.40;72.80;;;;;;5053121;28;20436;-63
2022/12/12 07:30:11;;;;;;;0.40;0.40;;;13.40;72.60;;;;;;5052019;28;20424;-63
2022/12/12 07:32:59;;;;;;;0.40;0.40;;;13.50;72.50;;;;;;5053369;28;20194;-64
2022/12/12 07:35:48;;;;;;;0.40;0.40;;;13.50;72.20;;;;;;5052631;28;20308;-64
2022/12/12 07:38:36;;;;;;;0.40;0.40;;;13.50;72.10;;;;;;5052365;28;20205;-63
2022/12/12 07:41:25;;;;;;;0.40;0.40;;;13.50;71.90;;;;;;5052334;28;20204;-63
2022/12/12 07:44:13;;;;;;;0.40;0.40;;;13.40;71.70;;;;;;5052118;28;20403;-62
2022/12/12 07:47:01;;;;;;;0.40;0.40;;;13.40;71.80;;;;;;5052093;28;20507;-63
2022/12/12 07:49:49;;;;;;;0.40;0.40;;;13.30;71.70;;;;;;5056181;28;20316;-65
2022/12/12 07:52:38;;;;;;;0.40;0.40;;;13.30;72.10;;;;;;5056279;28;20464;-62
2022/12/12 07:55:27;;;;;;;0.40;0.40;;;13.30;72.10;;;;;;5056346;28;20772;-63
2022/12/12 07:58:15;;;;;;;0.40;0.40;;;13.30;72.30;;;;;;5074744;28;20434;-64
2022/12/12 08:01:09;;;;;;;0.40;0.40;;;13.20;72.10;;;;;;5076034;28;20275;-63
2022/12/12 08:04:01;;;;;;;0.40;0.40;;;13.20;72.00;;;;;;5076423;28;20200;-66
2022/12/12 08:06:52;;;;;;;0.40;0.40;;;13.20;72.10;;;;;;5076919;28;20501;-64
2022/12/12 08:09:51;;;;;;;0.40;0.40;;;13.10;71.70;;;;;;5076071;28;20196;-65
2022/12/12 08:12:39;;;;;;;0.40;0.40;;;13.10;71.80;;;;;;5076294;28;20217;-66
2022/12/12 08:15:27;;;;;;;0.40;0.40;;;13.00;72.00;;;;;;5076056;28;20207;-64
2022/12/12 08:18:15;;;;;;;0.50;0.50;;;13.00;72.10;;;;;;5076439;28;20205;-65
2022/12/12 08:21:07;;;;;;;0.40;0.40;;;13.00;71.90;;;;;;5075733;28;20280;-65
2022/12/12 08:23:56;;;;;;;0.40;0.40;;;13.00;72.30;;;;;;5077222;28;20288;-64
2022/12/12 08:26:45;;;;;;;0.40;0.40;;;13.00;72.40;;;;;;5075952;28;20534;-65
2022/12/12 08:29:34;;;;;;;0.40;0.40;;;12.90;72.20;;;;;;5075739;28;20416;-63
2022/12/12 08:32:22;;;;;;;0.40;0.40;;;12.90;72.50;;;;;;5075679;28;20839;-65
2022/12/12 08:35:10;;;;;;;0.40;0.40;;;12.90;73.20;;;;;;5075787;28;20419;-65
2022/12/12 08:37:59;;;;;;;0.40;0.40;;;13.00;73.30;;;;;;5075005;28;20451;-65
2022/12/12 08:40:48;;;;;;;1.80;1.70;;;13.00;72.80;;;;;;5075783;28;20420;-65
2022/12/12 08:43:38;;;;;;;0.60;0.60;;;13.00;72.70;;;;;;5076081;28;20329;-63
2022/12/12 08:46:26;;;;;;;0.43;0.43;;;13.00;72.70;;;;;;5075602;28;20213;-63
2022/12/12 08:49:14;;;;;;;0.40;0.40;;;13.00;72.60;;;;;;5074999;28;20200;-63
2022/12/12 08:52:04;;;;;;;0.40;0.40;;;13.00;72.70;;;;;;5075349;28;20463;-63
2022/12/12 08:54:52;;;;;;;0.40;0.40;;;13.00;72.70;;;;;;5075092;28;20419;-63
2022/12/12 08:57:40;;;;;;;0.40;0.40;;;13.00;72.60;;;;;;5075273;28;20247;-62
2022/12/12 09:00:30;;;;;;;0.40;0.40;;;13.00;72.30;;;;;;5074083;28;20423;-63
2022/12/12 09:03:19;;;;;;;0.40;0.40;;;13.00;72.40;;;;;;5074305;28;20693;-63
2022/12/12 09:06:16;;;;;;;0.40;0.40;;;13.00;72.40;;;;;;5074391;28;20307;-62
2022/12/12 09:09:04;;;;;;;0.40;0.40;;;13.00;72.10;;;;;;5074954;28;20273;-68
2022/12/12 09:11:52;;;;;;;0.40;0.40;;;13.00;72.20;;;;;;5074675;28;20492;-63
2022/12/12 09:14:40;;;;;;;0.40;0.40;;;13.00;72.20;;;;;;5075189;28;20215;-64
2022/12/12 09:17:30;;;;;;;1.73;1.73;;;13.00;71.90;;;;;;5074546;28;20220;-63
2022/12/12 09:20:19;;;;;;;0.40;0.40;;;13.00;72.20;;;;;;5075450;28;20700;-65
2022/12/12 09:23:07;;;;;;;0.40;0.40;;;13.00;72.10;;;;;;5074325;28;20197;-64
2022/12/12 09:25:55;;;;;;;0.40;0.40;;;13.00;72.20;;;;;;5074254;28;20295;-63
2022/12/12 09:28:44;;;;;;;0.40;0.40;;;13.10;72.60;;;;;;5074793;28;20201;-62
2022/12/12 09:31:32;;;;;;;0.40;0.40;;;13.10;72.50;;;;;;5073989;28;20197;-64
2022/12/12 09:34:22;;;;;;;0.40;0.40;;;13.10;72.30;;;;;;5074495;28;20423;-63
2022/12/12 09:37:10;;;;;;;0.40;0.40;;;13.10;72.20;;;;;;5074843;28;20606;-63
2022/12/12 09:39:58;;;;;;;0.40;0.40;;;13.00;72.20;;;;;;5074050;28;20728;-63
2022/12/12 09:42:50;;;;;;;0.40;0.40;;;13.00;72.30;;;;;;5073809;28;20426;-63
2022/12/12 09:45:39;;;;;;;0.40;0.40;;;13.00;72.50;;;;;;5073305;28;20702;-62
2022/12/12 09:48:35;;;;;;;0.40;0.40;;;13.00;72.20;;;;;;5073977;28;20200;-64
2022/12/12 09:51:24;;;;;;;0.40;0.40;;;13.00;71.60;;;;;;5074055;28;20193;-63
2022/12/12 09:54:16;;;;;;;0.40;0.40;;;13.00;71.90;;;;;;5073941;28;20225;-63
2022/12/12 09:57:14;;;;;;;0.40;0.40;;;13.00;72.10;;;;;;5072146;28;20228;-63
2022/12/12 10:00:06;;;;;;;0.40;0.40;;;13.00;72.10;;;;;;5073168;28;20940;-66
2022/12/12 10:03:11;;;;;;;0.40;0.40;;;13.00;71.90;;;;;;5073679;28;20453;-63
2022/12/12 10:06:05;;;;;;;0.40;0.40;;;13.00;72.10;;;;;;5073209;28;20226;-63
2022/12/12 10:09:31;;;;;;;0.40;0.40;;;12.90;72.00;;;;;;5073154;28;20207;-63
2022/12/12 10:12:21;;;;;;;0.40;0.40;;;12.90;72.90;;;;;;5072375;28;20469;-62
2022/12/12 10:15:23;;;;;;;0.40;0.40;;;12.80;72.60;;;;;;5073779;28;20227;-64
2022/12/12 10:18:16;;;;;;;1.63;1.53;;;12.80;72.30;;;;;;5072617;28;20418;-63
2022/12/12 10:21:09;;;;;;;0.40;0.40;;;12.80;72.40;;;;;;5072044;28;20198;-62
2022/12/12 10:24:02;;;;;;;0.40;0.40;;;12.80;72.90;;;;;;5072352;28;20556;-65
2022/12/12 10:26:53;;;;;;;0.70;0.70;;;12.90;73.30;;;;;;5073067;28;21085;-63
2022/12/12 10:29:47;;;;;;;0.40;0.40;;;13.10;73.10;;;;;;5072333;28;20431;-64
2022/12/12 10:32:43;;;;;;;0.40;0.40;;;13.20;72.90;;;;;;5072431;28;20588;-66
2022/12/12 10:35:41;;;;;;;0.40;0.40;;;13.30;72.70;;;;;;5071698;28;20762;-62
2022/12/12 10:38:47;;;;;;;0.40;0.40;;;13.40;72.50;;;;;;5072168;28;20586;-65
2022/12/12 10:41:43;;;;;;;0.40;0.40;;;13.50;72.40;;;;;;5072470;28;20207;-65
2022/12/12 10:44:55;;;;;;;0.40;0.40;;;13.50;72.00;;;;;;5073151;28;20200;-64
2022/12/12 10:47:43;;;;;;;0.40;0.40;;;13.50;72.10;;;;;;5073670;28;20200;-63
2022/12/12 10:50:34;;;;;;;0.40;0.40;;;13.50;71.20;;;;;;5072501;28;20201;-65
2022/12/12 10:53:23;;;;;;;0.40;0.40;;;13.50;71.20;;;;;;5072779;28;20220;-63
2022/12/12 10:56:18;;;;;;;0.50;0.50;;;13.40;70.80;;;;;;5085564;22;20231;-63
2022/12/12 10:59:06;;;;;;;0.40;0.40;;;13.30;71.20;;;;;;5032808;28;20281;-65
2022/12/12 11:01:59;;;;;;;0.40;0.40;;;13.40;70.90;;;;;;5032261;28;20205;-64
2022/12/12 11:05:02;;;;;;;0.40;0.40;;;13.20;71.30;;;;;;5032142;28;20213;-64
2022/12/12 11:08:01;;;;;;;0.40;0.40;;;13.30;71.70;;;;;;5031165;28;20602;-64
2022/12/12 11:11:04;;;;;;;0.40;0.40;;;13.30;71.60;;;;;;5031436;28;20560;-64
2022/12/12 11:13:54;;;;;;;0.40;0.40;;;13.20;71.50;;;;;;5031787;28;20464;-64
2022/12/12 11:16:44;;;;;;;0.40;0.40;;;13.20;71.30;;;;;;5031673;28;20237;-64
2022/12/12 11:19:38;;;;;;;0.73;0.73;;;13.10;70.60;;;;;;5031404;28;20500;-64
2022/12/12 11:22:27;;;;;;;0.83;0.83;;;13.00;71.60;;;;;;5033267;28;20508;-64
2022/12/12 11:25:25;;;;;;;0.40;0.40;;;13.00;71.60;;;;;;5035868;28;20206;-64
2022/12/12 11:28:21;;;;;;;0.40;0.40;;;13.00;71.40;;;;;;5035309;28;20796;-64
2022/12/12 11:31:13;;;;;;;1.13;1.13;;;13.10;71.40;;;;;;5035204;28;20421;-64
2022/12/12 11:34:05;;;;;;;0.40;0.40;;;12.90;72.10;;;;;;5018317;28;20357;-64
2022/12/12 11:36:55;;;;;;;0.50;0.50;;;13.10;73.00;;;;;;5015556;28;20438;-64
2022/12/12 11:39:46;;;;;;;2.30;2.20;;;13.20;72.60;;;;;;5015349;28;20421;-64
2022/12/12 11:42:34;;;;;;;0.40;0.40;;;13.30;72.20;;;;;;5016059;28;20929;-64
2022/12/12 11:45:23;;;;;;;0.40;0.40;;;13.40;72.10;;;;;;5015468;28;20430;-64
2022/12/12 11:48:34;;;;;;;0.90;0.90;;;13.50;72.00;;;;;;5016042;28;20308;-65
2022/12/12 11:51:32;;;;;;;2.20;2.10;;;13.60;72.00;;;;;;5015627;28;20429;-64
2022/12/12 11:54:29;;;;;;;0.40;0.40;;;13.60;71.60;;;;;;5018453;28;20222;-65
2022/12/12 11:57:32;;;;;;;0.40;0.40;;;13.70;71.70;;;;;;5041983;28;20289;-65
2022/12/12 12:00:21;;;;;;;0.50;0.50;;;13.70;71.30;;;;;;5051770;28;20257;-65
2022/12/12 12:03:28;;;;;;;0.57;0.57;;;13.70;70.80;;;;;;5038055;28;20198;-64
2022/12/12 12:06:35;;;;;;;0.60;0.60;;;13.50;84.10;;;;;;5037538;28;20425;-65
2022/12/12 12:09:40;;;;;;;0.40;0.40;;;13.50;70.00;;;;;;5035446;28;20447;-64
2022/12/12 12:12:36;;;;;;;0.73;0.73;;;13.40;70.00;;;;;;5034245;28;20425;-64
2022/12/12 12:15:33;;;;;;;0.40;0.40;;;13.40;69.50;;;;;;5034614;28;20781;-64
2022/12/12 12:18:38;;;;;;;0.40;0.40;;;13.30;70.00;;;;;;5034896;28;20202;-64
2022/12/12 12:21:39;;;;;;;0.93;0.93;;;13.30;71.00;;;;;;5034292;28;20428;-64
2022/12/12 12:24:48;;;;;;;0.40;0.40;;;13.30;70.90;;;;;;5034243;28;20507;-65
2022/12/12 12:27:41;;;;;;;0.40;0.40;;;13.20;70.20;;;;;;5033840;28;20444;-64
2022/12/12 12:30:34;;;;;;;0.40;0.40;;;13.10;69.90;;;;;;5033491;28;20670;-63
2022/12/12 12:33:37;;;;;;;0.40;0.40;;;13.10;71.80;;;;;;5034641;28;20592;-64
2022/12/12 12:36:32;;;;;;;0.40;0.40;;;13.00;70.60;;;;;;5037481;28;20444;-65
2022/12/12 12:39:34;;;;;;;0.40;0.40;;;12.90;71.20;;;;;;5046139;28;20512;-64
2022/12/12 12:42:40;;;;;;;0.40;0.40;;;12.90;70.80;;;;;;5030601;28;20201;-64
2022/12/12 12:45:45;;;;;;;0.70;0.70;;;12.90;71.10;;;;;;5028495;28;20268;-65
2022/12/12 12:48:37;;;;;;;3.83;2.20;;;13.00;72.50;;;;;;5028832;28;20429;-64
2022/12/12 12:51:31;;;;;;;0.60;0.60;;;13.10;72.50;;;;;;5013711;28;20402;-64
2022/12/12 12:54:24;;;;;;;0.40;0.40;;;13.30;72.20;;;;;;5013153;28;20324;-64
2022/12/12 12:57:19;;;;;;;1.43;1.33;;;13.50;71.90;;;;;;4999917;28;20280;-64
2022/12/12 13:00:15;;;;;;;0.40;0.40;;;13.70;71.80;;;;;;5013528;28;20785;-64
2022/12/12 13:03:08;;;;;;;0.50;0.50;;;13.80;71.60;;;;;;5014990;28;20273;-65
2022/12/12 13:06:01;;;;;;;0.50;0.50;;;13.90;70.60;;;;;;5014072;28;20667;-65
2022/12/12 13:08:57;;;;;;;0.40;0.40;;;13.90;71.20;;;;;;5014062;28;20517;-64
2022/12/12 13:11:49;;;;;;;3.20;2.30;;;14.00;71.10;;;;;;5013717;28;20199;-64
2022/12/12 13:14:43;;;;;;;0.80;0.80;;;14.00;71.00;;;;;;5013158;28;20233;-65
2022/12/12 13:17:45;;;;;;;2.63;1.63;;;14.00;70.90;;;;;;5013035;28;20314;-64
2022/12/12 13:20:39;;;;;;;0.40;0.40;;;14.00;70.80;;;;;;5013410;28;20700;-64
2022/12/12 13:23:46;;;;;;;0.40;0.40;;;13.90;70.40;;;;;;5013167;28;20202;-64
2022/12/12 13:26:40;;;;;;;0.40;0.40;;;13.90;69.70;;;;;;5013349;28;20218;-64
2022/12/12 13:29:34;;;;;;;0.40;0.40;;;13.80;70.00;;;;;;5012727;28;20695;-64
2022/12/12 13:32:55;;;;;;;0.40;0.40;;;13.80;70.50;;;;;;5013497;28;20848;-65
2022/12/12 13:35:47;;;;;;;0.40;0.40;;;13.80;70.60;;;;;;5010711;28;20688;-64
2022/12/12 13:38:35;;;;;;;0.40;0.40;;;13.60;69.40;;;;;;5012768;28;20278;-64
2022/12/12 13:41:23;;;;;;;0.40;0.40;;;13.60;70.20;;;;;;5013845;28;20285;-64
2022/12/12 13:44:34;;;;;;;0.40;0.40;;;13.50;70.20;;;;;;5033012;28;20255;-64
2022/12/12 13:48:00;;;;;;;0.50;0.50;;;13.50;70.40;;;;;;5031589;28;20218;-64
2022/12/12 13:51:27;;;;;;;0.40;0.40;;;13.40;70.10;;;;;;5032486;28;20209;-64
2022/12/12 13:54:51;;;;;;;0.40;0.40;;;13.30;70.00;;;;;;5032885;28;20301;-64
2022/12/12 13:58:06;;;;;;;0.40;0.40;;;13.30;70.50;;;;;;5032537;28;20244;-64
2022/12/12 14:01:28;;;;;;;0.40;0.40;;;13.20;70.40;;;;;;5032952;28;20202;-64
2022/12/12 14:04:28;;;;;;;0.40;0.40;;;13.10;70.30;;;;;;5032944;28;20424;-65
2022/12/12 14:07:21;;;;;;;0.40;0.40;;;13.10;70.10;;;;;;5030136;28;20251;-63
2022/12/12 14:10:24;;;;;;;0.43;0.43;;;13.10;71.20;;;;;;5012821;28;20198;-64
2022/12/12 14:13:19;;;;;;;0.70;0.70;;;13.10;72.10;;;;;;5012799;28;20517;-64
2022/12/12 14:16:25;;;;;;;1.23;1.23;;;13.30;71.60;;;;;;5012120;28;20563;-64
2022/12/12 14:19:27;;;;;;;0.40;0.40;;;13.30;71.90;;;;;;5012825;28;20214;-64
2022/12/12 14:22:26;;;;;;;0.40;0.40;;;13.40;71.70;;;;;;5012533;28;20739;-64
2022/12/12 14:25:19;;;;;;;0.40;0.40;;;13.50;71.40;;;;;;5013266;28;20577;-64
2022/12/12 14:28:18;;;;;;;0.40;0.40;;;13.50;71.20;;;;;;5013267;28;20250;-64
2022/12/12 14:31:15;;;;;;;0.40;0.40;;;13.50;70.70;;;;;;5012711;28;20432;-64
2022/12/12 14:34:20;;;;;;;0.40;0.40;;;13.50;70.90;;;;;;5012779;28;20211;-64
2022/12/12 14:37:33;;;;;;;2.80;2.70;;;13.50;70.60;;;;;;5011777;28;20581;-64
2022/12/12 14:40:24;;;;;;;0.40;0.40;;;13.50;70.60;;;;;;5013327;28;20205;-64
2022/12/12 14:43:16;;;;;;;0.40;0.40;;;13.40;70.30;;;;;;5028259;28;20198;-64
2022/12/12 14:46:15;;;;;;;0.40;0.40;;;13.30;82.10;;;;;;5032148;28;20669;-64
2022/12/12 14:49:04;;;;;;;0.50;0.50;;;13.40;71.00;;;;;;5032800;28;20421;-65
2022/12/12 14:51:56;;;;;;;0.40;0.40;;;13.30;71.20;;;;;;5032221;28;20308;-64
2022/12/12 14:54:44;;;;;;;0.40;0.40;;;13.30;70.60;;;;;;5032917;28;20228;-64
2022/12/12 14:57:32;;;;;;;0.40;0.40;;;13.30;70.50;;;;;;5032384;28;20465;-65
2022/12/12 15:00:20;;;;;;;0.40;0.40;;;13.20;70.70;;;;;;5032065;28;20669;-64
2022/12/12 15:03:10;;;;;;;0.40;0.40;;;13.20;71.20;;;;;;5019810;28;20834;-64
2022/12/12 15:06:35;;;;;;;0.40;0.40;;;13.00;69.60;;;;;;5012248;28;20418;-64
2022/12/12 15:09:28;;;;;;;0.40;0.40;;;13.00;70.00;;;;;;5017617;28;20294;-63
2022/12/12 15:12:18;;;;;;;0.40;0.40;;;13.00;70.40;;;;;;5019978;28;20426;-63
2022/12/12 15:15:23;;;;;;;0.40;0.40;;;12.90;70.70;;;;;;5014753;28;20461;-63
2022/12/12 15:18:21;;;;;;;0.40;0.40;;;12.90;71.00;;;;;;5013032;28;20453;-63